createdAt,value
2018-10-18T00:00:21.731Z,64.10
2018-10-18T00:02:51.254Z,64.10
2018-10-18T00:05:20.866Z,64.10
2018-10-18T00:07:50.382Z,64.10
2018-10-18T00:10:20.045Z,64.10
2018-10-18T00:12:49.574Z,64.20
2018-10-18T00:15:19.117Z,64.20
2018-10-18T00:17:48.927Z,64.20
2018-10-18T00:20:18.533Z,64.20
2018-10-18T00:22:48.031Z,64.20
2018-10-18T00:25:17.587Z,64.20
2018-10-18T00:27:47.077Z,64.20
2018-10-18T00:30:16.875Z,64.20
2018-10-18T00:32:46.344Z,64.20
2018-10-18T00:35:15.859Z,64.20
2018-10-18T00:37:45.689Z,64.20
2018-10-18T00:40:15.185Z,64.20
2018-10-18T00:42:44.723Z,64.30
2018-10-18T00:45:14.274Z,64.30
2018-10-18T00:47:43.909Z,64.30
2018-10-18T00:50:13.573Z,64.30
2018-10-18T00:52:42.975Z,64.30
2018-10-18T00:55:12.710Z,64.20
2018-10-18T00:57:42.678Z,64.20
2018-10-18T01:00:12.862Z,64.20
2018-10-18T01:02:42.328Z,64.20
2018-10-18T01:05:11.839Z,64.20
2018-10-18T01:07:41.379Z,64.20
2018-10-18T01:10:10.862Z,64.20
2018-10-18T01:12:40.429Z,64.20
2018-10-18T01:15:09.902Z,64.20
2018-10-18T01:17:39.372Z,64.20
2018-10-18T01:20:09.035Z,64.20
2018-10-18T01:22:38.597Z,64.20
2018-10-18T01:25:08.208Z,64.20
2018-10-18T01:27:37.719Z,64.20
2018-10-18T01:30:07.980Z,64.20
2018-10-18T01:32:37.529Z,64.20
2018-10-18T01:35:07.506Z,64.20
2018-10-18T01:37:37.002Z,64.20
2018-10-18T01:40:06.685Z,64.10
2018-10-18T01:42:36.249Z,64.20
2018-10-18T01:45:05.907Z,64.20
2018-10-18T01:47:35.482Z,64.10
2018-10-18T01:50:05.843Z,64.10
2018-10-18T01:52:35.422Z,64.10
2018-10-18T01:55:06.083Z,64.10
2018-10-18T01:57:35.651Z,64.10
2018-10-18T02:00:05.776Z,64.10
2018-10-18T02:02:35.319Z,64.10
2018-10-18T02:05:04.865Z,64.10
2018-10-18T02:07:34.481Z,64.10
2018-10-18T02:10:04.116Z,64.10
2018-10-18T02:12:33.624Z,64.10
2018-10-18T02:15:03.133Z,64.10
2018-10-18T02:17:32.614Z,64.10
2018-10-18T02:20:02.090Z,64.10
2018-10-18T02:22:31.620Z,64.00
2018-10-18T02:25:01.165Z,64.00
2018-10-18T02:27:30.672Z,64.10
2018-10-18T02:30:00.239Z,64.10
2018-10-18T02:32:29.724Z,64.10
2018-10-18T02:34:59.199Z,64.00
2018-10-18T02:37:28.715Z,64.00
2018-10-18T02:39:58.250Z,64.00
2018-10-18T02:42:27.734Z,64.00
2018-10-18T02:44:57.245Z,63.90
2018-10-18T02:47:26.750Z,64.10
2018-10-18T02:49:56.278Z,63.80
2018-10-18T02:52:25.799Z,64.10
2018-10-18T02:54:55.301Z,64.10
2018-10-18T02:57:24.842Z,64.00
2018-10-18T02:59:54.376Z,64.10
2018-10-18T03:02:23.876Z,64.10
2018-10-18T03:04:53.419Z,64.10
2018-10-18T03:07:22.924Z,64.00
2018-10-18T03:09:52.393Z,64.10
2018-10-18T03:12:21.948Z,64.10
2018-10-18T03:14:51.475Z,64.00
2018-10-18T03:17:20.959Z,64.20
2018-10-18T03:19:50.547Z,64.00
2018-10-18T03:22:20.181Z,64.20
2018-10-18T03:24:49.726Z,64.90
2018-10-18T03:27:19.264Z,64.10
2018-10-18T03:29:48.829Z,64.20
2018-10-18T03:32:18.312Z,64.10
2018-10-18T03:34:47.826Z,64.80
2018-10-18T03:37:17.360Z,64.10
2018-10-18T03:39:46.898Z,64.10
2018-10-18T03:42:16.437Z,64.10
2018-10-18T03:44:45.985Z,64.10
2018-10-18T03:47:15.510Z,64.10
2018-10-18T03:49:45.022Z,64.10
2018-10-18T03:52:14.529Z,64.10
2018-10-18T03:54:44.120Z,64.10
2018-10-18T03:57:13.658Z,64.10
2018-10-18T03:59:43.326Z,64.10
2018-10-18T04:02:12.769Z,64.10
2018-10-18T04:04:42.300Z,64.10
2018-10-18T04:07:11.855Z,64.10
2018-10-18T04:09:41.368Z,64.10
2018-10-18T04:12:11.015Z,64.10
2018-10-18T04:14:40.469Z,64.10
2018-10-18T04:17:10.237Z,64.10
2018-10-18T04:19:39.810Z,64.00
2018-10-18T04:22:09.304Z,64.00
2018-10-18T04:24:38.928Z,64.80
2018-10-18T04:27:08.459Z,64.00
2018-10-18T04:29:37.986Z,64.00
2018-10-18T04:32:07.654Z,64.00
2018-10-18T04:34:37.136Z,64.00
2018-10-18T04:37:06.758Z,64.00
2018-10-18T04:39:36.290Z,63.90
2018-10-18T04:42:06.043Z,64.00
2018-10-18T04:44:35.530Z,63.90
2018-10-18T04:47:05.563Z,63.90
2018-10-18T04:49:35.096Z,63.90
2018-10-18T04:52:04.593Z,63.90
2018-10-18T04:54:34.092Z,64.60
2018-10-18T04:57:04.020Z,63.30
2018-10-18T04:59:33.563Z,63.90
2018-10-18T05:02:03.015Z,63.90
2018-10-18T05:04:32.486Z,63.70
2018-10-18T05:07:02.090Z,64.60
2018-10-18T05:09:31.602Z,63.90
2018-10-18T05:12:01.122Z,63.80
2018-10-18T05:14:30.637Z,63.90
2018-10-18T05:17:00.129Z,63.90
2018-10-18T05:19:29.647Z,63.70
2018-10-18T05:21:59.185Z,63.70
2018-10-18T05:24:28.681Z,63.90
2018-10-18T05:26:58.227Z,63.70
2018-10-18T05:29:27.742Z,63.70
2018-10-18T05:31:57.266Z,63.70
2018-10-18T05:34:26.788Z,63.80
2018-10-18T05:36:56.423Z,63.70
2018-10-18T05:39:25.849Z,63.70
2018-10-18T05:41:55.388Z,63.70
2018-10-18T05:44:24.915Z,63.70
2018-10-18T05:46:54.520Z,63.70
2018-10-18T05:49:23.984Z,63.80
2018-10-18T05:51:53.517Z,63.70
2018-10-18T05:54:23.367Z,63.70
2018-10-18T05:56:52.931Z,63.70
2018-10-18T05:59:22.625Z,63.70
2018-10-18T06:01:52.243Z,63.80
2018-10-18T06:04:21.841Z,63.70
2018-10-18T06:06:51.433Z,63.70
2018-10-18T06:09:35.895Z,63.70
2018-10-18T06:12:07.060Z,63.70
2018-10-18T06:14:36.578Z,63.60
2018-10-18T06:17:06.697Z,63.60
2018-10-18T06:19:36.297Z,63.80
2018-10-18T06:22:06.171Z,63.70
2018-10-18T06:24:35.684Z,63.70
2018-10-18T06:27:05.231Z,63.70
2018-10-18T06:29:34.767Z,63.70
2018-10-18T06:32:04.358Z,63.60
2018-10-18T06:34:33.988Z,63.60
2018-10-18T06:37:03.962Z,63.60
2018-10-18T06:39:33.534Z,63.60
2018-10-18T06:42:03.381Z,63.50
2018-10-18T06:44:32.883Z,63.60
2018-10-18T06:47:02.470Z,63.60
2018-10-18T06:49:32.098Z,63.50
2018-10-18T06:52:01.668Z,63.50
2018-10-18T06:54:31.288Z,63.50
2018-10-18T06:57:00.859Z,63.50
2018-10-18T06:59:30.422Z,63.40
2018-10-18T07:02:00.011Z,63.50
2018-10-18T07:04:29.575Z,63.50
2018-10-18T07:06:59.163Z,63.50
2018-10-18T07:09:28.749Z,63.50
2018-10-18T07:11:58.311Z,63.50
2018-10-18T07:14:27.963Z,63.40
2018-10-18T07:16:57.565Z,63.40
2018-10-18T07:19:27.146Z,63.40
2018-10-18T07:21:56.776Z,63.30
2018-10-18T07:24:26.345Z,63.30
2018-10-18T07:26:55.939Z,63.30
2018-10-18T07:29:25.572Z,63.20
2018-10-18T07:31:55.321Z,63.20
2018-10-18T07:34:25.135Z,63.20
2018-10-18T07:36:54.665Z,63.10
2018-10-18T07:39:24.399Z,63.20
2018-10-18T07:41:53.941Z,63.20
2018-10-18T07:44:23.482Z,63.10
2018-10-18T07:46:53.143Z,63.10
2018-10-18T07:49:22.624Z,63.00
2018-10-18T07:51:52.177Z,63.00
2018-10-18T07:54:21.893Z,63.00
2018-10-18T07:56:51.471Z,62.90
2018-10-18T07:59:20.975Z,62.90
2018-10-18T08:01:50.486Z,62.90
2018-10-18T08:04:20.441Z,62.90
2018-10-18T08:06:50.136Z,62.80
2018-10-18T08:09:19.712Z,62.80
2018-10-18T08:11:49.247Z,62.70
2018-10-18T08:14:18.841Z,62.70
2018-10-18T08:16:48.548Z,62.60
2018-10-18T08:19:18.255Z,62.60
2018-10-18T08:21:47.808Z,62.60
2018-10-18T08:24:18.870Z,62.50
2018-10-18T08:26:48.559Z,62.40
2018-10-18T08:29:18.169Z,62.50
2018-10-18T08:31:54.268Z,62.40
2018-10-18T08:34:28.355Z,62.30
2018-10-18T08:36:57.930Z,62.30
2018-10-18T08:39:27.414Z,62.30
2018-10-18T08:41:56.990Z,62.20
2018-10-18T08:44:26.651Z,62.20
2018-10-18T08:46:56.096Z,62.10
2018-10-18T08:49:25.627Z,62.10
2018-10-18T08:51:55.116Z,62.10
2018-10-18T08:54:24.685Z,62.10
2018-10-18T08:56:54.294Z,62.10
2018-10-18T08:59:23.819Z,62.10
2018-10-18T09:01:53.341Z,62.10
2018-10-18T09:04:22.891Z,62.10
2018-10-18T09:06:52.618Z,62.10
2018-10-18T09:09:22.291Z,62.00
2018-10-18T09:11:51.901Z,62.00
2018-10-18T09:14:21.472Z,61.90
2018-10-18T09:16:50.976Z,61.90
2018-10-18T09:19:20.729Z,61.90
2018-10-18T09:21:50.250Z,61.90
2018-10-18T09:24:19.788Z,62.60
2018-10-18T09:26:49.302Z,61.90
2018-10-18T09:29:18.794Z,62.00
2018-10-18T09:31:48.329Z,62.00
2018-10-18T09:34:17.810Z,62.00
2018-10-18T09:36:47.328Z,62.00
2018-10-18T09:39:16.836Z,62.10
2018-10-18T09:41:47.292Z,62.10
2018-10-18T09:44:16.889Z,62.10
2018-10-18T09:46:46.441Z,62.10
2018-10-18T09:49:16.041Z,62.10
2018-10-18T09:51:45.478Z,62.20
2018-10-18T09:54:15.003Z,62.20
2018-10-18T09:56:44.527Z,62.20
2018-10-18T09:59:14.037Z,62.10
2018-10-18T10:02:51.362Z,62.10
2018-10-18T10:05:21.385Z,62.10
2018-10-18T10:07:50.985Z,62.10
2018-10-18T10:10:20.549Z,62.10
2018-10-18T10:12:50.059Z,62.20
2018-10-18T10:15:19.580Z,62.10
2018-10-18T10:17:49.229Z,62.20
2018-10-18T10:20:18.647Z,62.10
2018-10-18T10:22:48.175Z,62.10
2018-10-18T10:25:17.741Z,62.20
2018-10-18T10:27:47.220Z,62.10
2018-10-18T10:30:16.830Z,62.10
2018-10-18T10:32:46.297Z,62.00
2018-10-18T10:35:16.016Z,62.50
2018-10-18T10:37:45.434Z,62.00
2018-10-18T10:40:15.016Z,62.00
2018-10-18T10:42:46.007Z,62.00
2018-10-18T10:45:15.574Z,62.00
2018-10-18T10:47:45.107Z,62.00
2018-10-18T10:50:14.665Z,62.00
2018-10-18T10:52:44.265Z,62.10
2018-10-18T10:55:13.921Z,62.10
2018-10-18T10:57:43.481Z,62.20
2018-10-18T11:00:13.090Z,62.10
2018-10-18T11:02:42.563Z,62.10
2018-10-18T11:05:12.254Z,62.10
2018-10-18T11:07:41.844Z,62.00
2018-10-18T11:10:11.419Z,62.00
2018-10-18T11:12:41.244Z,61.90
2018-10-18T11:15:10.912Z,62.00
2018-10-18T11:17:40.371Z,61.90
2018-10-18T11:20:10.490Z,61.90
2018-10-18T11:22:40.042Z,61.90
2018-10-18T11:25:09.694Z,61.80
2018-10-18T11:27:39.251Z,61.80
2018-10-18T11:30:09.126Z,61.80
2018-10-18T11:32:39.013Z,61.70
2018-10-18T11:35:08.612Z,61.80
2018-10-18T11:37:39.327Z,61.70
2018-10-18T11:40:08.879Z,61.60
2018-10-18T11:42:39.279Z,61.60
2018-10-18T11:45:08.862Z,61.60
2018-10-18T11:47:38.325Z,61.70
2018-10-18T11:50:07.958Z,61.70
2018-10-18T11:52:37.456Z,61.60
2018-10-18T11:55:06.942Z,61.60
2018-10-18T11:57:36.549Z,62.30
2018-10-18T12:00:06.472Z,61.50
2018-10-18T12:02:36.098Z,61.50
2018-10-18T12:05:05.798Z,61.40
2018-10-18T12:07:35.363Z,61.40
2018-10-18T12:10:04.888Z,61.40
2018-10-18T12:12:34.381Z,61.20
2018-10-18T12:15:04.113Z,61.30
2018-10-18T12:17:33.854Z,61.20
2018-10-18T12:20:03.391Z,61.10
2018-10-18T12:22:33.020Z,61.00
2018-10-18T12:25:02.530Z,60.80
2018-10-18T12:27:32.077Z,60.80
2018-10-18T12:30:02.034Z,60.60
2018-10-18T12:32:31.672Z,60.60
2018-10-18T12:35:01.258Z,60.50
2018-10-18T12:37:30.792Z,60.40
2018-10-18T12:40:00.730Z,60.40
2018-10-18T12:42:30.368Z,60.30
2018-10-18T12:44:59.896Z,60.30
2018-10-18T12:47:29.386Z,60.10
2018-10-18T12:49:58.911Z,60.20
2018-10-18T12:52:28.424Z,60.10
2018-10-18T12:54:57.950Z,60.00
2018-10-18T12:57:27.445Z,60.00
2018-10-18T12:59:56.964Z,59.90
2018-10-18T13:02:26.545Z,59.90
2018-10-18T13:04:56.036Z,59.80
2018-10-18T13:07:25.564Z,59.70
2018-10-18T13:09:55.090Z,59.60
2018-10-18T13:12:24.822Z,59.60
2018-10-18T13:14:54.281Z,59.60
2018-10-18T13:17:23.806Z,59.50
2018-10-18T13:19:53.324Z,59.50
2018-10-18T13:22:22.860Z,59.40
2018-10-18T13:24:52.472Z,59.40
2018-10-18T13:27:22.042Z,59.30
2018-10-18T13:29:51.864Z,59.20
2018-10-18T13:32:21.403Z,59.20
2018-10-18T13:34:51.331Z,59.10
2018-10-18T13:37:20.953Z,59.10
2018-10-18T13:39:50.496Z,58.80
2018-10-18T13:42:20.134Z,59.10
2018-10-18T13:44:49.693Z,59.00
2018-10-18T13:47:19.244Z,59.00
2018-10-18T13:49:48.868Z,58.90
2018-10-18T13:52:18.430Z,58.90
2018-10-18T13:54:47.929Z,58.90
2018-10-18T13:57:17.466Z,58.90
2018-10-18T13:59:57.957Z,58.80
2018-10-18T14:02:27.429Z,58.80
2018-10-18T14:04:56.961Z,58.70
2018-10-18T14:07:26.454Z,58.70
2018-10-18T14:09:55.957Z,58.80
2018-10-18T14:12:25.438Z,58.60
2018-10-18T14:14:54.928Z,58.50
2018-10-18T14:17:24.635Z,58.50
2018-10-18T14:19:54.056Z,58.50
2018-10-18T14:22:23.581Z,58.50
2018-10-18T14:24:53.080Z,58.50
2018-10-18T14:27:22.616Z,58.40
2018-10-18T14:29:52.173Z,58.40
2018-10-18T14:32:21.673Z,58.40
2018-10-18T14:34:51.228Z,58.30
2018-10-18T14:37:20.709Z,58.40
2018-10-18T14:39:50.192Z,58.40
2018-10-18T14:42:19.750Z,58.40
2018-10-18T14:44:52.283Z,58.30
2018-10-18T14:47:23.325Z,58.30
2018-10-18T14:49:52.781Z,58.30
2018-10-18T14:52:22.440Z,58.30
2018-10-18T14:54:51.894Z,58.30
2018-10-18T14:57:21.425Z,58.30
2018-10-18T14:59:50.935Z,58.30
2018-10-18T15:02:20.464Z,58.30
2018-10-18T15:04:49.992Z,58.20
2018-10-18T15:07:19.509Z,58.30
2018-10-18T15:09:49.006Z,58.70
2018-10-18T15:12:18.558Z,58.30
2018-10-18T15:14:48.099Z,58.30
2018-10-18T15:17:24.209Z,58.30
2018-10-18T15:19:53.771Z,58.30
2018-10-18T15:22:23.308Z,58.30
2018-10-18T15:24:52.807Z,58.30
2018-10-18T15:27:22.573Z,58.30
2018-10-18T15:29:52.062Z,58.30
2018-10-18T15:32:21.621Z,58.20
2018-10-18T15:34:51.208Z,58.20
2018-10-18T15:37:20.801Z,58.30
2018-10-18T15:39:50.414Z,58.30
2018-10-18T15:42:19.888Z,58.30
2018-10-18T15:44:49.434Z,58.30
2018-10-18T15:47:19.065Z,58.20
2018-10-18T15:49:48.515Z,58.20
2018-10-18T15:52:18.007Z,58.30
2018-10-18T15:54:47.533Z,58.30
2018-10-18T15:57:17.192Z,58.30
2018-10-18T15:59:46.666Z,58.30
2018-10-18T16:02:16.157Z,58.30
2018-10-18T16:04:45.676Z,58.30
2018-10-18T16:07:15.174Z,58.30
2018-10-18T16:09:44.674Z,58.30
2018-10-18T16:12:14.178Z,58.40
2018-10-18T16:14:43.687Z,58.30
2018-10-18T16:17:13.275Z,58.30
2018-10-18T16:19:42.808Z,58.30
2018-10-18T16:22:12.310Z,58.40
2018-10-18T16:24:41.808Z,58.40
2018-10-18T16:27:11.327Z,58.30
2018-10-18T16:29:40.921Z,58.40
2018-10-18T16:32:10.500Z,58.40
2018-10-18T16:34:39.957Z,58.40
2018-10-18T16:37:09.440Z,58.40
2018-10-18T16:39:38.928Z,58.40
2018-10-18T16:42:08.547Z,58.40
2018-10-18T16:44:38.060Z,58.40
2018-10-18T16:47:07.589Z,58.50
2018-10-18T16:49:43.651Z,58.40
2018-10-18T16:52:13.284Z,59.00
2018-10-18T16:54:42.955Z,58.50
2018-10-18T16:57:12.399Z,58.50
2018-10-18T16:59:41.984Z,58.60
2018-10-18T17:02:11.557Z,58.50
2018-10-18T17:04:41.066Z,58.50
2018-10-18T17:07:10.815Z,58.50
2018-10-18T17:09:40.380Z,58.60
2018-10-18T17:12:09.956Z,58.50
2018-10-18T17:14:39.456Z,58.60
2018-10-18T17:17:08.994Z,58.60
2018-10-18T17:19:38.490Z,58.70
2018-10-18T17:22:08.067Z,58.70
2018-10-18T17:24:37.627Z,58.60
2018-10-18T17:27:07.247Z,58.60
2018-10-18T17:29:36.705Z,58.60
2018-10-18T17:32:06.369Z,58.60
2018-10-18T17:34:35.868Z,58.60
2018-10-18T17:37:05.447Z,58.60
2018-10-18T17:39:34.957Z,58.70
2018-10-18T17:42:04.534Z,58.70
2018-10-18T17:44:34.108Z,58.60
2018-10-18T17:47:03.701Z,58.60
2018-10-18T17:49:33.324Z,58.70
2018-10-18T17:52:02.916Z,58.60
2018-10-18T17:54:32.449Z,58.70
2018-10-18T17:57:01.977Z,58.70
2018-10-18T17:59:31.519Z,58.70
2018-10-18T18:02:01.087Z,58.70
2018-10-18T18:04:30.563Z,58.70
2018-10-18T18:07:00.130Z,58.70
2018-10-18T18:09:29.638Z,58.70
2018-10-18T18:11:59.146Z,58.70
2018-10-18T18:14:28.809Z,58.80
2018-10-18T18:16:58.310Z,58.80
2018-10-18T18:19:27.942Z,58.80
2018-10-18T18:21:57.474Z,58.80
2018-10-18T18:24:27.136Z,58.80
2018-10-18T18:26:56.760Z,58.80
2018-10-18T18:29:26.502Z,58.90
2018-10-18T18:31:56.082Z,58.90
2018-10-18T18:34:25.662Z,58.90
2018-10-18T18:36:55.272Z,58.90
2018-10-18T18:39:24.816Z,59.00
2018-10-18T18:41:54.303Z,59.00
2018-10-18T18:44:23.930Z,58.90
2018-10-18T18:46:53.463Z,59.10
2018-10-18T18:49:23.253Z,59.00
2018-10-18T18:51:52.780Z,59.10
2018-10-18T18:54:22.391Z,59.10
2018-10-18T18:56:51.914Z,59.10
2018-10-18T18:59:21.421Z,59.10
2018-10-18T19:01:50.965Z,59.20
2018-10-18T19:04:20.488Z,59.20
2018-10-18T19:06:50.083Z,59.30
2018-10-18T19:09:19.605Z,59.30
2018-10-18T19:11:49.145Z,59.30
2018-10-18T19:14:18.695Z,59.30
2018-10-18T19:16:48.252Z,59.40
2018-10-18T19:19:17.756Z,59.40
2018-10-18T19:21:48.364Z,59.40
2018-10-18T19:24:17.936Z,59.50
2018-10-18T19:26:47.593Z,59.50
2018-10-18T19:29:17.366Z,59.50
2018-10-18T19:31:47.636Z,59.50
2018-10-18T19:34:17.252Z,59.60
2018-10-18T19:36:46.781Z,59.60
2018-10-18T19:39:16.329Z,59.60
2018-10-18T19:41:45.860Z,59.50
2018-10-18T19:44:15.387Z,59.60
2018-10-18T19:46:45.036Z,59.60
2018-10-18T19:49:14.526Z,59.60
2018-10-18T19:51:44.052Z,59.70
2018-10-18T19:54:13.558Z,59.70
2018-10-18T19:56:43.090Z,60.30
2018-10-18T19:59:12.606Z,59.70
2018-10-18T20:01:42.143Z,59.70
2018-10-18T20:04:11.693Z,59.70
2018-10-18T20:06:41.166Z,59.80
2018-10-18T20:09:12.371Z,59.80
2018-10-18T20:11:42.300Z,59.80
2018-10-18T20:14:11.834Z,59.80
2018-10-18T20:16:41.370Z,59.80
2018-10-18T20:19:10.898Z,59.80
2018-10-18T20:21:40.396Z,59.80
2018-10-18T20:24:10.733Z,59.80
2018-10-18T20:26:40.353Z,59.90
2018-10-18T20:29:09.827Z,59.90
2018-10-18T20:31:39.360Z,59.80
2018-10-18T20:34:08.838Z,59.80
2018-10-18T20:36:38.412Z,59.90
2018-10-18T20:39:10.169Z,59.90
2018-10-18T20:41:39.696Z,59.90
2018-10-18T20:44:09.227Z,60.00
2018-10-18T20:46:38.779Z,59.90
2018-10-18T20:49:08.318Z,59.90
2018-10-18T20:51:37.836Z,60.30
2018-10-18T20:54:07.403Z,59.90
2018-10-18T20:56:36.975Z,59.90
2018-10-18T20:59:06.538Z,60.00
2018-10-18T21:01:37.008Z,60.00
2018-10-18T21:04:06.690Z,59.90
2018-10-18T21:06:36.427Z,59.90
2018-10-18T21:09:08.449Z,60.00
2018-10-18T21:11:37.917Z,60.00
2018-10-18T21:14:07.519Z,60.00
2018-10-18T21:16:37.029Z,60.00
2018-10-18T21:19:06.556Z,60.00
2018-10-18T21:21:36.142Z,59.90
2018-10-18T21:24:05.663Z,59.90
2018-10-18T21:26:35.154Z,60.00
2018-10-18T21:29:04.970Z,60.00
2018-10-18T21:31:34.399Z,60.00
2018-10-18T21:34:04.017Z,60.00
2018-10-18T21:36:33.525Z,60.00
2018-10-18T21:39:03.217Z,60.00
2018-10-18T21:41:32.759Z,60.00
2018-10-18T21:44:02.240Z,60.00
2018-10-18T21:46:31.899Z,60.00
2018-10-18T21:49:01.500Z,60.10
2018-10-18T21:51:30.964Z,60.10
2018-10-18T21:54:00.489Z,60.00
2018-10-18T21:56:30.006Z,60.10
2018-10-18T21:58:59.542Z,60.10
2018-10-18T22:01:29.141Z,60.10
2018-10-18T22:03:58.628Z,60.10
2018-10-18T22:06:34.628Z,60.10
2018-10-18T22:09:05.210Z,60.20
2018-10-18T22:11:34.802Z,60.20
2018-10-18T22:14:04.383Z,60.20
2018-10-18T22:16:33.884Z,60.10
2018-10-18T22:19:04.338Z,60.20
2018-10-18T22:21:33.836Z,60.20
2018-10-18T22:24:03.382Z,60.20
2018-10-18T22:26:32.890Z,60.20
2018-10-18T22:29:02.429Z,60.20
2018-10-18T22:31:31.939Z,60.30
2018-10-18T22:34:01.430Z,60.30
2018-10-18T22:36:30.942Z,60.30
2018-10-18T22:39:00.512Z,60.20
2018-10-18T22:41:30.079Z,60.20
2018-10-18T22:43:59.603Z,60.20
2018-10-18T22:46:29.083Z,60.20
2018-10-18T22:48:58.648Z,60.30
2018-10-18T22:51:28.161Z,60.30
2018-10-18T22:53:57.716Z,60.30
2018-10-18T22:56:27.210Z,60.40
2018-10-18T22:58:56.790Z,60.20
2018-10-18T23:01:26.238Z,60.30
2018-10-18T23:03:55.777Z,60.30
2018-10-18T23:06:25.350Z,60.30
2018-10-18T23:08:54.862Z,60.30
2018-10-18T23:11:24.369Z,60.30
2018-10-18T23:13:53.907Z,60.30
2018-10-18T23:16:23.451Z,60.30
2018-10-18T23:18:52.968Z,60.30
2018-10-18T23:21:22.554Z,60.40
2018-10-18T23:23:52.044Z,60.20
2018-10-18T23:26:21.556Z,60.30
2018-10-18T23:28:51.065Z,60.30
2018-10-18T23:31:20.592Z,60.30
2018-10-18T23:33:50.218Z,60.30
2018-10-18T23:36:19.718Z,60.30
2018-10-18T23:38:49.248Z,60.30
2018-10-18T23:41:18.776Z,60.30
2018-10-18T23:43:48.318Z,60.40
2018-10-18T23:46:17.914Z,60.30
2018-10-18T23:48:47.406Z,60.30
2018-10-18T23:51:17.043Z,60.30
2018-10-18T23:53:46.608Z,60.30
2018-10-18T23:56:16.137Z,60.30
2018-10-18T23:58:45.667Z,60.40
